HOURLY OBS INDEX

038

Channel Country

BIRDSVILLE AIRPORT

Site: 038026
Alt: 46.6m
0.0km WNW of BIRDSVILLE


  Time     Wind        Temp  DP   Baro     Rain since   Rain past  Vis(m), Cloud(base in m), Weather
  local        km/h                         9am  last   hr   10m    
Mon 20:00   SE  9/ 13  38.0  4.8  1006.8    0.0   0.0   0.0   0.0   ----- 
Mon 20:00   SE  9/ 13  38.0  4.8  1006.8    0.0   0.0  ----   0.0   ----- 
Mon 20:30   SE 15/ 17  37.3  5.3  1007.1    0.0   0.0   0.0   0.0   ----- 
Mon 21:00   SE 13/ 15  36.8  4.9  1007.2    0.0   0.0   0.0   0.0   ----- 
Mon 21:30  ESE  9/ 13  35.7  5.1  1007.5    0.0   0.0   0.0   0.0   ----- 
Mon 22:00   SE  9/ 11  34.4  5.0  1007.6    0.0   0.0   0.0   0.0   ----- 
Mon 22:30   SE 13/ 15  34.2  5.7  1007.7    0.0   0.0   0.0   0.0   ----- 
Mon 23:00   SE  9/ 11  33.3  5.8  1007.8    0.0   0.0   0.0   0.0   ----- 
Mon 23:30   SE 11/ 13  33.3  5.8  1007.4    0.0   0.0   0.0   0.0   ----- 
Tue 00:00    C  0/  0  32.5  5.9  1007.1    0.0   0.0   0.0   0.0   ----- 
Tue 00:30    C  0/  0  31.7  6.0  1006.8    0.0   0.0   0.0   0.0   ----- 
Tue 01:00    C  0/  0  30.8  5.3  1006.4    0.0   0.0   0.0   0.0   ----- 
Tue 01:00    C  0/  0  30.8  5.3  1006.4    0.0   0.0  ----   0.0   ----- 

WINDORAH AIRPORT

Site: 038076
Alt: 132.2m
2km NNE of WINDORAH


  Time     Wind        Temp  DP   Baro     Rain since   Rain past  Vis(m), Cloud(base in m), Weather
  local        km/h                         9am  last   hr   10m    
Mon 20:00  ESE  9/ 17  36.5 -1.4  1007.8    0.0   0.0   0.0   0.0   10000 
Mon 20:00  ESE  9/ 17  36.5 -1.4  1007.8    0.0   0.0  ----   0.0   10000 
Mon 20:30   SE  9/  9  35.6 -2.1  1008.0    0.0   0.0   0.0   0.0   10000 
Mon 21:00   SE  9/ 13  34.8 -1.3  1008.1    0.0   0.0   0.0   0.0   10000 
Mon 21:30    E 11/ 13  34.0 -0.6  1008.3    0.0   0.0   0.0   0.0   10000 
Mon 22:00   SE  9/ 11  33.5  0.2  1008.5    0.0   0.0   0.0   0.0   10000 
Mon 22:30  ENE  7/  9  32.2 -0.8  1008.6    0.0   0.0   0.0   0.0   10000 
Mon 23:00  ESE 11/ 13  32.1  1.3  1008.5    0.0   0.0   0.0   0.0   10000 
Mon 23:30  ESE 11/ 15  31.8  1.0  1008.3    0.0   0.0   0.0   0.0   10000 
Tue 00:00  ESE 11/ 13  31.2  1.5  1008.0    0.0   0.0   0.0   0.0   10000 
Tue 00:30    E 11/ 15  30.8  2.1  1007.6    0.0   0.0   0.0   0.0   10000 
Tue 01:00  ESE 13/ 17  31.3  2.5  1007.4    0.0   0.0   0.0   0.0   10000 
Tue 01:00  ESE 13/ 17  31.3  2.5  1007.4    0.0   0.0  ----   0.0   10000